sensor_id;sensor_type;location;lat;lon;timestamp;P1;durP1;ratioP1;P2;durP2;ratioP2
52210;SDS011;38179;52.756;6.906;2022-07-23T00:01:16;19.70;;;18.10;;
52210;SDS011;38179;52.756;6.906;2022-07-23T00:03:42;18.85;;;17.55;;
52210;SDS011;38179;52.756;6.906;2022-07-23T00:06:09;19.27;;;17.60;;
52210;SDS011;38179;52.756;6.906;2022-07-23T00:08:35;19.75;;;18.20;;
52210;SDS011;38179;52.756;6.906;2022-07-23T00:11:01;19.33;;;17.85;;
52210;SDS011;38179;52.756;6.906;2022-07-23T00:13:27;19.48;;;17.98;;
52210;SDS011;38179;52.756;6.906;2022-07-23T00:15:53;20.23;;;18.52;;
52210;SDS011;38179;52.756;6.906;2022-07-23T00:18:19;19.10;;;17.50;;
52210;SDS011;38179;52.756;6.906;2022-07-23T00:20:45;19.13;;;17.63;;
52210;SDS011;38179;52.756;6.906;2022-07-23T00:23:11;19.85;;;18.25;;
52210;SDS011;38179;52.756;6.906;2022-07-23T00:25:37;19.08;;;17.67;;
52210;SDS011;38179;52.756;6.906;2022-07-23T00:28:03;19.48;;;17.88;;
52210;SDS011;38179;52.756;6.906;2022-07-23T00:30:29;20.52;;;18.85;;
52210;SDS011;38179;52.756;6.906;2022-07-23T00:32:57;19.77;;;18.17;;
52210;SDS011;38179;52.756;6.906;2022-07-23T00:35:26;19.65;;;17.98;;
52210;SDS011;38179;52.756;6.906;2022-07-23T00:40:20;18.95;;;17.55;;
52210;SDS011;38179;52.756;6.906;2022-07-23T00:42:46;20.38;;;18.63;;
52210;SDS011;38179;52.756;6.906;2022-07-23T00:45:12;19.88;;;18.13;;
52210;SDS011;38179;52.756;6.906;2022-07-23T00:47:38;19.55;;;18.08;;
52210;SDS011;38179;52.756;6.906;2022-07-23T00:50:05;19.60;;;18.10;;
52210;SDS011;38179;52.756;6.906;2022-07-23T00:52:33;19.20;;;17.65;;
52210;SDS011;38179;52.756;6.906;2022-07-23T00:55:00;19.52;;;18.08;;
52210;SDS011;38179;52.756;6.906;2022-07-23T00:57:27;20.33;;;18.65;;
52210;SDS011;38179;52.756;6.906;2022-07-23T00:59:53;19.63;;;18.13;;
52210;SDS011;38179;52.756;6.906;2022-07-23T01:02:19;19.83;;;18.15;;
52210;SDS011;38179;52.756;6.906;2022-07-23T01:04:45;19.02;;;17.63;;
52210;SDS011;38179;52.756;6.906;2022-07-23T01:07:11;19.67;;;17.83;;
52210;SDS011;38179;52.756;6.906;2022-07-23T01:09:37;19.27;;;17.77;;
52210;SDS011;38179;52.756;6.906;2022-07-23T01:12:04;19.42;;;18.02;;
52210;SDS011;38179;52.756;6.906;2022-07-23T01:14:31;19.23;;;17.65;;
52210;SDS011;38179;52.756;6.906;2022-07-23T01:16:57;19.90;;;18.30;;
52210;SDS011;38179;52.756;6.906;2022-07-23T01:19:23;19.20;;;17.65;;
52210;SDS011;38179;52.756;6.906;2022-07-23T01:21:50;19.70;;;18.20;;
52210;SDS011;38179;52.756;6.906;2022-07-23T01:24:17;19.42;;;17.83;;
52210;SDS011;38179;52.756;6.906;2022-07-23T01:26:45;20.95;;;19.30;;
52210;SDS011;38179;52.756;6.906;2022-07-23T01:29:13;19.40;;;17.77;;
52210;SDS011;38179;52.756;6.906;2022-07-23T01:31:40;19.75;;;18.15;;
52210;SDS011;38179;52.756;6.906;2022-07-23T01:34:07;20.33;;;18.67;;
52210;SDS011;38179;52.756;6.906;2022-07-23T01:36:33;20.13;;;18.55;;
52210;SDS011;38179;52.756;6.906;2022-07-23T01:39:00;20.27;;;18.77;;
52210;SDS011;38179;52.756;6.906;2022-07-23T01:41:26;20.70;;;18.98;;
52210;SDS011;38179;52.756;6.906;2022-07-23T01:43:52;19.63;;;18.13;;
52210;SDS011;38179;52.756;6.906;2022-07-23T01:46:18;19.65;;;18.05;;
52210;SDS011;38179;52.756;6.906;2022-07-23T01:48:44;20.15;;;18.55;;
52210;SDS011;38179;52.756;6.906;2022-07-23T01:51:10;20.48;;;18.80;;
52210;SDS011;38179;52.756;6.906;2022-07-23T01:53:36;21.42;;;19.30;;
52210;SDS011;38179;52.756;6.906;2022-07-23T01:56:02;20.83;;;19.13;;
52210;SDS011;38179;52.756;6.906;2022-07-23T01:58:28;20.65;;;19.15;;
52210;SDS011;38179;52.756;6.906;2022-07-23T02:00:55;19.98;;;18.35;;
52210;SDS011;38179;52.756;6.906;2022-07-23T02:03:21;20.40;;;18.63;;
52210;SDS011;38179;52.756;6.906;2022-07-23T02:05:48;19.98;;;18.38;;
52210;SDS011;38179;52.756;6.906;2022-07-23T02:08:14;20.83;;;18.83;;
52210;SDS011;38179;52.756;6.906;2022-07-23T02:10:41;21.42;;;19.83;;
52210;SDS011;38179;52.756;6.906;2022-07-23T02:13:06;19.98;;;18.23;;
52210;SDS011;38179;52.756;6.906;2022-07-23T02:15:33;20.25;;;18.75;;
52210;SDS011;38179;52.756;6.906;2022-07-23T02:17:59;20.70;;;18.98;;
52210;SDS011;38179;52.756;6.906;2022-07-23T02:20:25;19.90;;;18.40;;
52210;SDS011;38179;52.756;6.906;2022-07-23T02:22:51;20.30;;;18.70;;
52210;SDS011;38179;52.756;6.906;2022-07-23T02:25:17;19.45;;;18.05;;
52210;SDS011;38179;52.756;6.906;2022-07-23T02:27:43;19.60;;;18.10;;
52210;SDS011;38179;52.756;6.906;2022-07-23T02:30:09;21.23;;;19.17;;
52210;SDS011;38179;52.756;6.906;2022-07-23T02:32:36;21.52;;;19.77;;
52210;SDS011;38179;52.756;6.906;2022-07-23T02:35:02;20.08;;;18.48;;
52210;SDS011;38179;52.756;6.906;2022-07-23T02:37:29;20.15;;;18.65;;
52210;SDS011;38179;52.756;6.906;2022-07-23T02:39:55;20.27;;;18.48;;
52210;SDS011;38179;52.756;6.906;2022-07-23T02:42:21;20.45;;;18.65;;
52210;SDS011;38179;52.756;6.906;2022-07-23T02:44:49;20.00;;;18.20;;
52210;SDS011;38179;52.756;6.906;2022-07-23T02:47:16;20.20;;;18.70;;
52210;SDS011;38179;52.756;6.906;2022-07-23T02:49:42;20.38;;;18.77;;
52210;SDS011;38179;52.756;6.906;2022-07-23T02:52:08;20.45;;;18.85;;
52210;SDS011;38179;52.756;6.906;2022-07-23T02:54:36;19.80;;;18.20;;
52210;SDS011;38179;52.756;6.906;2022-07-23T02:57:02;20.00;;;18.42;;
52210;SDS011;38179;52.756;6.906;2022-07-23T02:59:29;21.00;;;19.33;;
52210;SDS011;38179;52.756;6.906;2022-07-23T03:01:55;20.08;;;18.35;;
52210;SDS011;38179;52.756;6.906;2022-07-23T03:04:21;19.60;;;18.10;;
52210;SDS011;38179;52.756;6.906;2022-07-23T03:06:47;20.65;;;18.95;;
52210;SDS011;38179;52.756;6.906;2022-07-23T03:09:13;20.75;;;19.05;;
52210;SDS011;38179;52.756;6.906;2022-07-23T03:11:39;20.77;;;19.17;;
52210;SDS011;38179;52.756;6.906;2022-07-23T03:14:05;19.95;;;18.25;;
52210;SDS011;38179;52.756;6.906;2022-07-23T03:16:32;21.13;;;19.17;;
52210;SDS011;38179;52.756;6.906;2022-07-23T03:18:58;20.95;;;19.35;;
52210;SDS011;38179;52.756;6.906;2022-07-23T03:21:24;20.60;;;18.95;;
52210;SDS011;38179;52.756;6.906;2022-07-23T03:23:50;20.08;;;18.58;;
52210;SDS011;38179;52.756;6.906;2022-07-23T03:26:16;20.25;;;18.65;;
52210;SDS011;38179;52.756;6.906;2022-07-23T03:28:42;19.73;;;18.00;;
52210;SDS011;38179;52.756;6.906;2022-07-23T03:31:08;20.27;;;18.67;;
52210;SDS011;38179;52.756;6.906;2022-07-23T03:33:34;20.70;;;19.08;;
52210;SDS011;38179;52.756;6.906;2022-07-23T03:36:00;20.33;;;18.60;;
52210;SDS011;38179;52.756;6.906;2022-07-23T03:38:27;21.67;;;19.88;;
52210;SDS011;38179;52.756;6.906;2022-07-23T03:40:53;20.63;;;18.92;;
52210;SDS011;38179;52.756;6.906;2022-07-23T03:43:18;20.58;;;18.85;;
52210;SDS011;38179;52.756;6.906;2022-07-23T03:45:44;20.95;;;19.35;;
52210;SDS011;38179;52.756;6.906;2022-07-23T03:48:10;20.63;;;19.02;;
52210;SDS011;38179;52.756;6.906;2022-07-23T03:50:36;20.80;;;19.10;;
52210;SDS011;38179;52.756;6.906;2022-07-23T03:53:02;20.88;;;19.27;;
52210;SDS011;38179;52.756;6.906;2022-07-23T03:55:28;20.23;;;18.63;;
52210;SDS011;38179;52.756;6.906;2022-07-23T03:57:54;21.55;;;19.75;;
52210;SDS011;38179;52.756;6.906;2022-07-23T04:00:21;21.05;;;19.35;;
52210;SDS011;38179;52.756;6.906;2022-07-23T04:02:47;20.60;;;18.90;;
52210;SDS011;38179;52.756;6.906;2022-07-23T04:05:13;22.45;;;20.40;;
52210;SDS011;38179;52.756;6.906;2022-07-23T04:07:39;21.88;;;19.85;;
52210;SDS011;38179;52.756;6.906;2022-07-23T04:10:05;22.17;;;20.20;;
52210;SDS011;38179;52.756;6.906;2022-07-23T04:12:31;22.23;;;20.42;;
52210;SDS011;38179;52.756;6.906;2022-07-23T04:14:57;21.33;;;19.48;;
52210;SDS011;38179;52.756;6.906;2022-07-23T04:17:23;21.65;;;19.90;;
52210;SDS011;38179;52.756;6.906;2022-07-23T04:19:49;20.83;;;19.02;;
52210;SDS011;38179;52.756;6.906;2022-07-23T04:22:15;20.38;;;18.70;;
52210;SDS011;38179;52.756;6.906;2022-07-23T04:24:41;19.45;;;17.95;;
52210;SDS011;38179;52.756;6.906;2022-07-23T04:27:07;20.75;;;19.02;;
52210;SDS011;38179;52.756;6.906;2022-07-23T04:29:33;19.92;;;18.30;;
52210;SDS011;38179;52.756;6.906;2022-07-23T04:31:58;21.13;;;19.48;;
52210;SDS011;38179;52.756;6.906;2022-07-23T04:34:24;22.27;;;20.20;;
52210;SDS011;38179;52.756;6.906;2022-07-23T04:36:52;22.60;;;20.50;;
52210;SDS011;38179;52.756;6.906;2022-07-23T04:39:18;21.65;;;20.05;;
52210;SDS011;38179;52.756;6.906;2022-07-23T04:41:44;21.08;;;19.48;;
52210;SDS011;38179;52.756;6.906;2022-07-23T04:44:10;21.58;;;19.88;;
52210;SDS011;38179;52.756;6.906;2022-07-23T04:46:36;20.40;;;18.80;;
52210;SDS011;38179;52.756;6.906;2022-07-23T04:49:02;20.63;;;19.02;;
52210;SDS011;38179;52.756;6.906;2022-07-23T04:51:28;20.58;;;18.88;;
52210;SDS011;38179;52.756;6.906;2022-07-23T04:53:54;20.85;;;19.15;;
52210;SDS011;38179;52.756;6.906;2022-07-23T04:56:20;22.15;;;20.35;;
52210;SDS011;38179;52.756;6.906;2022-07-23T04:58:46;21.73;;;20.02;;
52210;SDS011;38179;52.756;6.906;2022-07-23T05:01:12;20.08;;;18.55;;
52210;SDS011;38179;52.756;6.906;2022-07-23T05:03:38;20.55;;;18.92;;
52210;SDS011;38179;52.756;6.906;2022-07-23T05:06:04;21.45;;;19.60;;
52210;SDS011;38179;52.756;6.906;2022-07-23T05:08:30;22.00;;;20.30;;
52210;SDS011;38179;52.756;6.906;2022-07-23T05:10:57;20.48;;;18.70;;
52210;SDS011;38179;52.756;6.906;2022-07-23T05:13:23;21.27;;;19.48;;
52210;SDS011;38179;52.756;6.906;2022-07-23T05:15:49;21.13;;;19.27;;
52210;SDS011;38179;52.756;6.906;2022-07-23T05:18:15;20.80;;;19.20;;
52210;SDS011;38179;52.756;6.906;2022-07-23T05:20:41;20.88;;;19.17;;
52210;SDS011;38179;52.756;6.906;2022-07-23T05:23:07;20.88;;;19.08;;
52210;SDS011;38179;52.756;6.906;2022-07-23T05:25:33;21.45;;;19.35;;
52210;SDS011;38179;52.756;6.906;2022-07-23T05:27:59;21.08;;;19.48;;
52210;SDS011;38179;52.756;6.906;2022-07-23T05:30:25;21.00;;;19.30;;
52210;SDS011;38179;52.756;6.906;2022-07-23T05:32:51;20.08;;;18.55;;
52210;SDS011;38179;52.756;6.906;2022-07-23T05:35:17;20.00;;;18.27;;
52210;SDS011;38179;52.756;6.906;2022-07-23T05:37:43;20.45;;;18.75;;
52210;SDS011;38179;52.756;6.906;2022-07-23T05:40:09;19.92;;;18.33;;
52210;SDS011;38179;52.756;6.906;2022-07-23T05:42:39;20.60;;;18.70;;
52210;SDS011;38179;52.756;6.906;2022-07-23T05:45:06;20.08;;;18.27;;
52210;SDS011;38179;52.756;6.906;2022-07-23T05:47:39;19.95;;;18.38;;
52210;SDS011;38179;52.756;6.906;2022-07-23T05:50:09;20.08;;;18.45;;
52210;SDS011;38179;52.756;6.906;2022-07-23T05:52:35;19.88;;;18.27;;
52210;SDS011;38179;52.756;6.906;2022-07-23T05:55:01;19.77;;;18.02;;
52210;SDS011;38179;52.756;6.906;2022-07-23T05:57:27;20.60;;;18.90;;
52210;SDS011;38179;52.756;6.906;2022-07-23T05:59:53;20.35;;;18.35;;
52210;SDS011;38179;52.756;6.906;2022-07-23T06:02:19;20.67;;;18.85;;
52210;SDS011;38179;52.756;6.906;2022-07-23T06:04:45;19.38;;;17.88;;
52210;SDS011;38179;52.756;6.906;2022-07-23T06:07:11;20.02;;;18.25;;
52210;SDS011;38179;52.756;6.906;2022-07-23T06:09:37;20.88;;;19.13;;
52210;SDS011;38179;52.756;6.906;2022-07-23T06:12:03;20.08;;;18.33;;
52210;SDS011;38179;52.756;6.906;2022-07-23T06:14:29;20.33;;;18.60;;
52210;SDS011;38179;52.756;6.906;2022-07-23T06:16:55;19.88;;;18.17;;
52210;SDS011;38179;52.756;6.906;2022-07-23T06:19:22;20.17;;;18.67;;
52210;SDS011;38179;52.756;6.906;2022-07-23T06:21:58;19.88;;;18.35;;
52210;SDS011;38179;52.756;6.906;2022-07-23T06:24:24;19.85;;;18.33;;
52210;SDS011;38179;52.756;6.906;2022-07-23T06:26:50;20.05;;;18.35;;
52210;SDS011;38179;52.756;6.906;2022-07-23T06:29:16;19.58;;;18.08;;
52210;SDS011;38179;52.756;6.906;2022-07-23T06:31:43;19.50;;;17.70;;
52210;SDS011;38179;52.756;6.906;2022-07-23T06:34:08;20.48;;;18.58;;
52210;SDS011;38179;52.756;6.906;2022-07-23T06:36:34;20.30;;;18.50;;
52210;SDS011;38179;52.756;6.906;2022-07-23T06:39:00;19.85;;;18.17;;
52210;SDS011;38179;52.756;6.906;2022-07-23T06:41:26;20.35;;;18.75;;
52210;SDS011;38179;52.756;6.906;2022-07-23T06:43:52;20.02;;;18.42;;
52210;SDS011;38179;52.756;6.906;2022-07-23T06:46:18;20.50;;;18.80;;
52210;SDS011;38179;52.756;6.906;2022-07-23T06:48:44;20.63;;;18.77;;
52210;SDS011;38179;52.756;6.906;2022-07-23T06:51:10;19.95;;;18.45;;
52210;SDS011;38179;52.756;6.906;2022-07-23T06:53:36;20.33;;;18.30;;
52210;SDS011;38179;52.756;6.906;2022-07-23T06:56:02;20.67;;;18.77;;
52210;SDS011;38179;52.756;6.906;2022-07-23T06:58:27;19.33;;;17.83;;
52210;SDS011;38179;52.756;6.906;2022-07-23T07:00:53;20.30;;;18.50;;
52210;SDS011;38179;52.756;6.906;2022-07-23T07:03:19;19.52;;;17.77;;
52210;SDS011;38179;52.756;6.906;2022-07-23T07:05:45;19.25;;;17.75;;
52210;SDS011;38179;52.756;6.906;2022-07-23T07:08:11;18.60;;;16.92;;
52210;SDS011;38179;52.756;6.906;2022-07-23T07:10:37;19.45;;;17.90;;
52210;SDS011;38179;52.756;6.906;2022-07-23T07:13:03;19.52;;;18.02;;
52210;SDS011;38179;52.756;6.906;2022-07-23T07:15:29;19.17;;;17.58;;
52210;SDS011;38179;52.756;6.906;2022-07-23T07:17:54;19.40;;;17.88;;
52210;SDS011;38179;52.756;6.906;2022-07-23T07:20:20;19.38;;;17.63;;
52210;SDS011;38179;52.756;6.906;2022-07-23T07:22:46;19.17;;;17.65;;
52210;SDS011;38179;52.756;6.906;2022-07-23T07:25:13;18.92;;;17.42;;
52210;SDS011;38179;52.756;6.906;2022-07-23T07:27:39;18.45;;;17.08;;
52210;SDS011;38179;52.756;6.906;2022-07-23T07:30:06;18.17;;;16.88;;
52210;SDS011;38179;52.756;6.906;2022-07-23T07:32:32;18.45;;;16.98;;
52210;SDS011;38179;52.756;6.906;2022-07-23T07:34:58;19.23;;;17.77;;
52210;SDS011;38179;52.756;6.906;2022-07-23T07:37:24;19.40;;;17.90;;
52210;SDS011;38179;52.756;6.906;2022-07-23T07:39:50;19.05;;;17.55;;
52210;SDS011;38179;52.756;6.906;2022-07-23T07:42:16;19.13;;;17.65;;
52210;SDS011;38179;52.756;6.906;2022-07-23T07:44:42;19.58;;;17.92;;
52210;SDS011;38179;52.756;6.906;2022-07-23T07:47:08;19.23;;;17.80;;
52210;SDS011;38179;52.756;6.906;2022-07-23T07:49:34;19.67;;;18.08;;
52210;SDS011;38179;52.756;6.906;2022-07-23T07:51:59;20.23;;;18.55;;
52210;SDS011;38179;52.756;6.906;2022-07-23T07:54:25;19.23;;;17.67;;
52210;SDS011;38179;52.756;6.906;2022-07-23T07:56:51;18.83;;;17.42;;
52210;SDS011;38179;52.756;6.906;2022-07-23T07:59:17;18.33;;;16.92;;
52210;SDS011;38179;52.756;6.906;2022-07-23T08:01:43;18.85;;;17.35;;
52210;SDS011;38179;52.756;6.906;2022-07-23T08:04:09;18.60;;;17.20;;
52210;SDS011;38179;52.756;6.906;2022-07-23T08:06:34;19.45;;;17.90;;
52210;SDS011;38179;52.756;6.906;2022-07-23T08:09:00;18.35;;;17.00;;
52210;SDS011;38179;52.756;6.906;2022-07-23T08:11:26;18.80;;;17.30;;
52210;SDS011;38179;52.756;6.906;2022-07-23T08:13:52;19.10;;;17.67;;
52210;SDS011;38179;52.756;6.906;2022-07-23T08:16:18;18.58;;;17.17;;
52210;SDS011;38179;52.756;6.906;2022-07-23T08:18:44;18.40;;;17.00;;
52210;SDS011;38179;52.756;6.906;2022-07-23T08:21:09;17.90;;;16.60;;
52210;SDS011;38179;52.756;6.906;2022-07-23T08:23:36;18.88;;;17.50;;
52210;SDS011;38179;52.756;6.906;2022-07-23T08:26:02;18.38;;;17.05;;
52210;SDS011;38179;52.756;6.906;2022-07-23T08:28:28;17.88;;;16.50;;
52210;SDS011;38179;52.756;6.906;2022-07-23T08:30:54;19.60;;;17.90;;
52210;SDS011;38179;52.756;6.906;2022-07-23T08:33:20;18.83;;;17.42;;
52210;SDS011;38179;52.756;6.906;2022-07-23T08:35:47;18.92;;;17.52;;
52210;SDS011;38179;52.756;6.906;2022-07-23T08:38:15;19.55;;;18.00;;
52210;SDS011;38179;52.756;6.906;2022-07-23T08:40:44;18.95;;;17.55;;
52210;SDS011;38179;52.756;6.906;2022-07-23T08:43:15;18.98;;;17.58;;
52210;SDS011;38179;52.756;6.906;2022-07-23T08:45:45;18.92;;;17.52;;
52210;SDS011;38179;52.756;6.906;2022-07-23T08:48:22;19.15;;;17.52;;
52210;SDS011;38179;52.756;6.906;2022-07-23T08:50:50;19.05;;;17.65;;
52210;SDS011;38179;52.756;6.906;2022-07-23T08:53:17;18.60;;;17.20;;
52210;SDS011;38179;52.756;6.906;2022-07-23T08:55:44;18.65;;;17.17;;
52210;SDS011;38179;52.756;6.906;2022-07-23T08:58:12;18.80;;;17.40;;
52210;SDS011;38179;52.756;6.906;2022-07-23T09:00:38;18.38;;;17.08;;
52210;SDS011;38179;52.756;6.906;2022-07-23T09:03:04;18.17;;;16.88;;
52210;SDS011;38179;52.756;6.906;2022-07-23T09:05:30;18.60;;;17.20;;
52210;SDS011;38179;52.756;6.906;2022-07-23T09:08:03;18.45;;;17.05;;
52210;SDS011;38179;52.756;6.906;2022-07-23T09:10:42;18.65;;;17.35;;
52210;SDS011;38179;52.756;6.906;2022-07-23T09:13:45;18.77;;;17.38;;
52210;SDS011;38179;52.756;6.906;2022-07-23T09:16:13;18.33;;;17.02;;
52210;SDS011;38179;52.756;6.906;2022-07-23T09:18:47;18.23;;;16.92;;
52210;SDS011;38179;52.756;6.906;2022-07-23T09:23:47;18.30;;;17.00;;
52210;SDS011;38179;52.756;6.906;2022-07-23T09:26:17;18.70;;;17.30;;
52210;SDS011;38179;52.756;6.906;2022-07-23T09:31:43;18.85;;;17.05;;
52210;SDS011;38179;52.756;6.906;2022-07-23T09:34:26;18.30;;;17.00;;
52210;SDS011;38179;52.756;6.906;2022-07-23T09:37:08;18.00;;;16.70;;
52210;SDS011;38179;52.756;6.906;2022-07-23T09:39:35;18.75;;;17.40;;
52210;SDS011;38179;52.756;6.906;2022-07-23T09:44:47;18.83;;;17.48;;
52210;SDS011;38179;52.756;6.906;2022-07-23T09:47:15;18.77;;;17.40;;
52210;SDS011;38179;52.756;6.906;2022-07-23T09:50:01;18.55;;;17.20;;
52210;SDS011;38179;52.756;6.906;2022-07-23T09:52:34;19.10;;;17.73;;
52210;SDS011;38179;52.756;6.906;2022-07-23T09:55:03;18.67;;;17.38;;
52210;SDS011;38179;52.756;6.906;2022-07-23T09:57:31;19.30;;;17.80;;
52210;SDS011;38179;52.756;6.906;2022-07-23T09:59:58;18.90;;;17.40;;
52210;SDS011;38179;52.756;6.906;2022-07-23T10:02:27;18.60;;;17.30;;
52210;SDS011;38179;52.756;6.906;2022-07-23T10:04:56;19.13;;;17.73;;
52210;SDS011;38179;52.756;6.906;2022-07-23T10:07:23;18.92;;;17.52;;
52210;SDS011;38179;52.756;6.906;2022-07-23T10:09:52;19.10;;;17.60;;
52210;SDS011;38179;52.756;6.906;2022-07-23T10:12:19;19.13;;;17.67;;
52210;SDS011;38179;52.756;6.906;2022-07-23T10:15:00;19.20;;;17.80;;
52210;SDS011;38179;52.756;6.906;2022-07-23T10:17:28;18.63;;;17.33;;
52210;SDS011;38179;52.756;6.906;2022-07-23T10:19:54;19.27;;;17.88;;
52210;SDS011;38179;52.756;6.906;2022-07-23T10:22:22;19.23;;;17.83;;
52210;SDS011;38179;52.756;6.906;2022-07-23T10:36:19;18.88;;;17.55;;
52210;SDS011;38179;52.756;6.906;2022-07-23T10:38:56;19.75;;;18.25;;
52210;SDS011;38179;52.756;6.906;2022-07-23T10:41:37;19.35;;;17.95;;
52210;SDS011;38179;52.756;6.906;2022-07-23T10:44:14;19.52;;;18.13;;
52210;SDS011;38179;52.756;6.906;2022-07-23T10:46:58;19.55;;;18.15;;
52210;SDS011;38179;52.756;6.906;2022-07-23T10:49:40;19.65;;;18.25;;
52210;SDS011;38179;52.756;6.906;2022-07-23T10:52:25;19.40;;;18.00;;
52210;SDS011;38179;52.756;6.906;2022-07-23T10:57:20;19.95;;;18.33;;
52210;SDS011;38179;52.756;6.906;2022-07-23T11:02:29;19.73;;;18.15;;
52210;SDS011;38179;52.756;6.906;2022-07-23T11:05:06;19.83;;;18.42;;
52210;SDS011;38179;52.756;6.906;2022-07-23T11:07:37;19.35;;;18.02;;
52210;SDS011;38179;52.756;6.906;2022-07-23T11:10:32;19.88;;;18.45;;
52210;SDS011;38179;52.756;6.906;2022-07-23T11:24:04;19.38;;;17.98;;
52210;SDS011;38179;52.756;6.906;2022-07-23T11:31:57;19.98;;;18.38;;
52210;SDS011;38179;52.756;6.906;2022-07-23T11:37:04;20.02;;;18.63;;
52210;SDS011;38179;52.756;6.906;2022-07-23T11:39:32;19.77;;;18.38;;
52210;SDS011;38179;52.756;6.906;2022-07-23T11:41:59;20.35;;;18.75;;
52210;SDS011;38179;52.756;6.906;2022-07-23T11:44:30;20.58;;;19.13;;
52210;SDS011;38179;52.756;6.906;2022-07-23T11:46:57;20.48;;;18.88;;
52210;SDS011;38179;52.756;6.906;2022-07-23T11:49:28;20.10;;;18.70;;
52210;SDS011;38179;52.756;6.906;2022-07-23T11:52:08;19.77;;;18.38;;
52210;SDS011;38179;52.756;6.906;2022-07-23T11:54:54;19.90;;;18.50;;
52210;SDS011;38179;52.756;6.906;2022-07-23T11:57:25;20.05;;;18.55;;
52210;SDS011;38179;52.756;6.906;2022-07-23T11:59:55;20.75;;;19.05;;
52210;SDS011;38179;52.756;6.906;2022-07-23T12:02:21;19.80;;;18.27;;
52210;SDS011;38179;52.756;6.906;2022-07-23T12:04:49;19.90;;;18.50;;
52210;SDS011;38179;52.756;6.906;2022-07-23T12:07:24;20.17;;;18.67;;
52210;SDS011;38179;52.756;6.906;2022-07-23T12:10:45;20.30;;;18.80;;
52210;SDS011;38179;52.756;6.906;2022-07-23T12:12:52;20.55;;;19.05;;
52210;SDS011;38179;52.756;6.906;2022-07-23T12:15:20;21.08;;;19.58;;
52210;SDS011;38179;52.756;6.906;2022-07-23T12:17:51;20.60;;;19.10;;
52210;SDS011;38179;52.756;6.906;2022-07-23T12:20:23;20.48;;;19.02;;
52210;SDS011;38179;52.756;6.906;2022-07-23T12:22:52;20.92;;;19.33;;
52210;SDS011;38179;52.756;6.906;2022-07-23T12:25:22;20.65;;;19.15;;
52210;SDS011;38179;52.756;6.906;2022-07-23T12:28:00;21.15;;;19.63;;
52210;SDS011;38179;52.756;6.906;2022-07-23T12:30:36;20.77;;;19.35;;
52210;SDS011;38179;52.756;6.906;2022-07-23T12:33:07;21.83;;;20.13;;
52210;SDS011;38179;52.756;6.906;2022-07-23T12:35:39;20.70;;;19.20;;
52210;SDS011;38179;52.756;6.906;2022-07-23T12:38:09;20.73;;;19.23;;
52210;SDS011;38179;52.756;6.906;2022-07-23T12:40:43;21.25;;;19.67;;
52210;SDS011;38179;52.756;6.906;2022-07-23T12:43:17;20.65;;;19.25;;
52210;SDS011;38179;52.756;6.906;2022-07-23T12:48:40;20.90;;;19.40;;
52210;SDS011;38179;52.756;6.906;2022-07-23T12:51:15;20.80;;;19.35;;
52210;SDS011;38179;52.756;6.906;2022-07-23T12:53:45;20.92;;;19.45;;
52210;SDS011;38179;52.756;6.906;2022-07-23T12:58:56;20.63;;;19.13;;
52210;SDS011;38179;52.756;6.906;2022-07-23T13:01:29;21.35;;;19.75;;
52210;SDS011;38179;52.756;6.906;2022-07-23T13:04:09;21.50;;;19.77;;
52210;SDS011;38179;52.756;6.906;2022-07-23T13:06:43;21.48;;;19.98;;
52210;SDS011;38179;52.756;6.906;2022-07-23T13:09:21;22.20;;;20.40;;
52210;SDS011;38179;52.756;6.906;2022-07-23T13:11:48;21.70;;;20.10;;
52210;SDS011;38179;52.756;6.906;2022-07-23T13:14:16;22.42;;;20.75;;
52210;SDS011;38179;52.756;6.906;2022-07-23T13:16:43;22.42;;;20.77;;
52210;SDS011;38179;52.756;6.906;2022-07-23T13:19:10;22.83;;;20.98;;
52210;SDS011;38179;52.756;6.906;2022-07-23T13:21:36;21.42;;;19.85;;
52210;SDS011;38179;52.756;6.906;2022-07-23T13:24:03;20.88;;;19.48;;
52210;SDS011;38179;52.756;6.906;2022-07-23T13:26:29;21.73;;;20.23;;
52210;SDS011;38179;52.756;6.906;2022-07-23T13:28:55;21.80;;;20.10;;
52210;SDS011;38179;52.756;6.906;2022-07-23T13:31:21;21.80;;;20.20;;
52210;SDS011;38179;52.756;6.906;2022-07-23T13:33:47;22.00;;;20.50;;
52210;SDS011;38179;52.756;6.906;2022-07-23T13:36:13;21.55;;;20.00;;
52210;SDS011;38179;52.756;6.906;2022-07-23T13:38:39;22.13;;;20.52;;
52210;SDS011;38179;52.756;6.906;2022-07-23T13:41:05;21.83;;;20.33;;
52210;SDS011;38179;52.756;6.906;2022-07-23T13:43:31;22.17;;;20.58;;
52210;SDS011;38179;52.756;6.906;2022-07-23T13:45:58;22.33;;;20.73;;
52210;SDS011;38179;52.756;6.906;2022-07-23T13:48:24;21.75;;;20.13;;
52210;SDS011;38179;52.756;6.906;2022-07-23T13:50:51;22.65;;;20.90;;
52210;SDS011;38179;52.756;6.906;2022-07-23T13:53:18;22.17;;;20.58;;
52210;SDS011;38179;52.756;6.906;2022-07-23T13:55:47;22.52;;;20.92;;
52210;SDS011;38179;52.756;6.906;2022-07-23T13:58:15;22.80;;;21.20;;
52210;SDS011;38179;52.756;6.906;2022-07-23T14:00:42;22.23;;;20.63;;
52210;SDS011;38179;52.756;6.906;2022-07-23T14:03:13;22.63;;;20.92;;
52210;SDS011;38179;52.756;6.906;2022-07-23T14:05:39;22.00;;;20.40;;
52210;SDS011;38179;52.756;6.906;2022-07-23T14:08:06;22.67;;;20.88;;
52210;SDS011;38179;52.756;6.906;2022-07-23T14:10:33;23.15;;;21.35;;
52210;SDS011;38179;52.756;6.906;2022-07-23T14:12:59;22.60;;;20.90;;
52210;SDS011;38179;52.756;6.906;2022-07-23T14:15:26;22.35;;;20.65;;
52210;SDS011;38179;52.756;6.906;2022-07-23T14:17:53;22.73;;;20.92;;
52210;SDS011;38179;52.756;6.906;2022-07-23T14:20:19;22.23;;;20.52;;
52210;SDS011;38179;52.756;6.906;2022-07-23T14:22:45;22.25;;;20.65;;
52210;SDS011;38179;52.756;6.906;2022-07-23T14:25:11;22.80;;;21.20;;
52210;SDS011;38179;52.756;6.906;2022-07-23T14:27:38;22.10;;;20.50;;
52210;SDS011;38179;52.756;6.906;2022-07-23T14:30:08;23.13;;;21.33;;
52210;SDS011;38179;52.756;6.906;2022-07-23T14:32:36;22.35;;;20.75;;
52210;SDS011;38179;52.756;6.906;2022-07-23T14:35:03;23.55;;;21.73;;
52210;SDS011;38179;52.756;6.906;2022-07-23T14:37:29;23.05;;;21.35;;
52210;SDS011;38179;52.756;6.906;2022-07-23T14:39:55;22.58;;;20.90;;
52210;SDS011;38179;52.756;6.906;2022-07-23T14:42:21;23.02;;;21.42;;
52210;SDS011;38179;52.756;6.906;2022-07-23T14:44:47;22.48;;;20.88;;
52210;SDS011;38179;52.756;6.906;2022-07-23T14:47:13;22.45;;;20.75;;
52210;SDS011;38179;52.756;6.906;2022-07-23T14:49:39;22.75;;;21.13;;
52210;SDS011;38179;52.756;6.906;2022-07-23T14:52:05;22.50;;;20.90;;
52210;SDS011;38179;52.756;6.906;2022-07-23T14:54:31;22.77;;;21.17;;
52210;SDS011;38179;52.756;6.906;2022-07-23T14:56:58;23.23;;;21.42;;
52210;SDS011;38179;52.756;6.906;2022-07-23T14:59:26;23.05;;;21.35;;
52210;SDS011;38179;52.756;6.906;2022-07-23T15:01:52;22.75;;;20.95;;
52210;SDS011;38179;52.756;6.906;2022-07-23T15:04:19;22.88;;;21.17;;
52210;SDS011;38179;52.756;6.906;2022-07-23T15:06:45;22.77;;;21.08;;
52210;SDS011;38179;52.756;6.906;2022-07-23T15:09:11;22.75;;;21.05;;
52210;SDS011;38179;52.756;6.906;2022-07-23T15:11:37;23.40;;;21.77;;
52210;SDS011;38179;52.756;6.906;2022-07-23T15:14:03;22.67;;;21.08;;
52210;SDS011;38179;52.756;6.906;2022-07-23T15:16:30;22.83;;;20.88;;